Lemitar, New Mexico
Current Conditions -  °F | °C
As of 11:55 AM on Thursday 30 Oct 2014 (Local Time) from KONM Reporting Station
Clear Clear  
Wind Chill: 66°   Ceiling: Unl
Heat Index: 66°   Visibility: 10mi
Dew Point: 21°   Wind: 10mph
Humidity: 18%   Direction: 360°N
Pressure: 30.33"   Gusts: NA
Location:  34.16°N, 106.91°W
Report Text: KONM 301755Z AUTO 36009KT 10SM CLR 19/M06 A3033 RMK AO2 T01911062 10191 20057
Loading
Personal Weather Stations






























Interactive Weather Map
Tropical Storm Tracking
New forecast layout! Learn more

10-Day Weather Forecast

Advertisements
Track Severe Weather on mobile